createdAt,value
2023-03-28T00:01:12.709Z,100.00
2023-03-28T00:03:40.881Z,100.00
2023-03-28T00:06:11.039Z,100.00
2023-03-28T00:08:40.396Z,100.00
2023-03-28T00:11:10.448Z,100.00
2023-03-28T00:13:38.790Z,100.00
2023-03-28T00:16:12.590Z,100.00
2023-03-28T00:18:41.433Z,100.00
2023-03-28T00:21:20.189Z,100.00
2023-03-28T00:23:51.485Z,100.00
2023-03-28T00:26:20.462Z,100.00
2023-03-28T00:28:48.114Z,100.00
2023-03-28T00:31:17.171Z,100.00
2023-03-28T00:33:47.719Z,100.00
2023-03-28T00:36:18.570Z,100.00
2023-03-28T00:38:46.432Z,100.00
2023-03-28T00:41:16.024Z,100.00
2023-03-28T00:43:45.379Z,100.00
2023-03-28T00:46:21.089Z,100.00
2023-03-28T00:48:52.653Z,100.00
2023-03-28T00:51:24.975Z,100.00
2023-03-28T00:53:53.908Z,100.00
2023-03-28T00:56:25.021Z,100.00
2023-03-28T00:58:53.647Z,100.00
2023-03-28T01:01:22.759Z,100.00
2023-03-28T01:03:56.260Z,100.00
2023-03-28T01:06:25.734Z,100.00
2023-03-28T01:08:54.015Z,100.00
2023-03-28T01:11:22.324Z,100.00
2023-03-28T01:13:53.026Z,100.00
2023-03-28T01:16:23.702Z,100.00
2023-03-28T01:18:52.500Z,100.00
2023-03-28T01:21:48.852Z,100.00
2023-03-28T01:25:00.129Z,100.00
2023-03-28T01:27:35.446Z,100.00
2023-03-28T01:30:37.855Z,100.00
2023-03-28T01:33:39.581Z,100.00
2023-03-28T01:36:38.750Z,100.00
2023-03-28T01:39:14.175Z,100.00
2023-03-28T01:41:52.061Z,100.00
2023-03-28T01:44:29.649Z,100.00
2023-03-28T01:47:02.105Z,100.00
2023-03-28T01:49:35.896Z,100.00
2023-03-28T01:52:15.139Z,100.00
2023-03-28T01:54:49.866Z,100.00
2023-03-28T01:57:24.130Z,100.00
2023-03-28T01:59:58.208Z,100.00
2023-03-28T02:02:31.758Z,100.00
2023-03-28T02:05:01.312Z,100.00
2023-03-28T02:07:33.972Z,100.00
2023-03-28T02:10:05.292Z,100.00
2023-03-28T02:12:38.088Z,100.00
2023-03-28T02:15:09.603Z,100.00
2023-03-28T02:17:43.982Z,100.00
2023-03-28T02:20:19.436Z,100.00
2023-03-28T02:22:52.544Z,100.00
2023-03-28T02:25:20.728Z,100.00
2023-03-28T02:27:53.199Z,100.00
2023-03-28T02:30:22.740Z,100.00
2023-03-28T02:32:51.612Z,100.00
2023-03-28T02:35:25.067Z,100.00
2023-03-28T02:38:00.560Z,100.00
2023-03-28T02:40:50.185Z,100.00
2023-03-28T02:43:38.097Z,100.00
2023-03-28T02:46:13.554Z,100.00
2023-03-28T02:49:01.425Z,100.00
2023-03-28T02:51:34.745Z,100.00
2023-03-28T02:54:19.863Z,100.00
2023-03-28T02:56:56.462Z,100.00
2023-03-28T02:59:28.495Z,100.00
2023-03-28T03:01:56.433Z,100.00
2023-03-28T03:04:24.362Z,100.00
2023-03-28T03:06:52.368Z,100.00
2023-03-28T03:09:23.097Z,100.00
2023-03-28T03:11:50.778Z,100.00
2023-03-28T03:14:18.457Z,100.00
2023-03-28T03:16:46.229Z,100.00
2023-03-28T03:19:13.860Z,100.00
2023-03-28T03:21:41.488Z,100.00
2023-03-28T03:24:10.441Z,100.00
2023-03-28T03:26:39.428Z,100.00
2023-03-28T03:29:07.760Z,100.00
2023-03-28T03:31:39.814Z,100.00
2023-03-28T03:34:07.549Z,100.00
2023-03-28T03:36:35.279Z,100.00
2023-03-28T03:39:03.653Z,100.00
2023-03-28T03:41:31.313Z,100.00
2023-03-28T03:44:00.818Z,100.00
2023-03-28T03:46:28.566Z,100.00
2023-03-28T03:48:56.296Z,100.00
2023-03-28T03:51:23.977Z,100.00
2023-03-28T03:53:51.686Z,100.00
2023-03-28T03:56:19.319Z,100.00
2023-03-28T03:58:46.932Z,100.00
2023-03-28T04:01:16.037Z,100.00
2023-03-28T04:03:44.035Z,100.00
2023-03-28T04:06:11.906Z,100.00
2023-03-28T04:08:39.599Z,100.00
2023-03-28T04:11:08.361Z,100.00
2023-03-28T04:13:35.989Z,100.00
2023-03-28T04:16:03.985Z,100.00
2023-03-28T04:18:34.097Z,100.00
2023-03-28T04:21:02.664Z,100.00
2023-03-28T04:23:30.387Z,100.00
2023-03-28T04:25:58.858Z,100.00
2023-03-28T04:28:27.918Z,100.00
2023-03-28T04:30:58.666Z,100.00
2023-03-28T04:33:27.057Z,100.00
2023-03-28T04:36:00.585Z,100.00
2023-03-28T04:38:31.728Z,100.00
2023-03-28T04:41:00.888Z,100.00
2023-03-28T04:43:29.074Z,100.00
2023-03-28T04:45:58.127Z,100.00
2023-03-28T04:48:27.694Z,100.00
2023-03-28T04:50:56.903Z,100.00
2023-03-28T04:53:25.675Z,100.00
2023-03-28T04:55:54.043Z,100.00
2023-03-28T04:58:24.406Z,100.00
2023-03-28T05:00:52.638Z,100.00
2023-03-28T05:03:23.776Z,100.00
2023-03-28T05:05:53.472Z,100.00
2023-03-28T05:08:25.174Z,100.00
2023-03-28T05:10:53.300Z,100.00
2023-03-28T05:13:23.509Z,100.00
2023-03-28T05:15:51.540Z,100.00
2023-03-28T05:18:19.530Z,100.00
2023-03-28T05:20:47.473Z,100.00
2023-03-28T05:23:15.555Z,100.00
2023-03-28T05:25:45.262Z,100.00
2023-03-28T05:28:13.399Z,100.00
2023-03-28T05:30:41.691Z,100.00
2023-03-28T05:33:09.701Z,100.00
2023-03-28T05:35:38.059Z,100.00
2023-03-28T05:38:06.286Z,100.00
2023-03-28T05:40:33.971Z,100.00
2023-03-28T05:43:03.184Z,100.00
2023-03-28T05:45:30.957Z,100.00
2023-03-28T05:47:58.704Z,100.00
2023-03-28T05:50:27.399Z,100.00
2023-03-28T05:52:55.126Z,100.00
2023-03-28T05:55:22.939Z,100.00
2023-03-28T05:57:50.820Z,100.00
2023-03-28T06:00:21.212Z,100.00
2023-03-28T06:02:50.432Z,100.00
2023-03-28T06:05:19.596Z,100.00
2023-03-28T06:07:47.451Z,100.00
2023-03-28T06:10:16.592Z,100.00
2023-03-28T06:12:44.400Z,100.00
2023-03-28T06:15:12.760Z,100.00
2023-03-28T06:17:41.954Z,100.00
2023-03-28T06:20:10.794Z,100.00
2023-03-28T06:22:38.850Z,100.00
2023-03-28T06:25:07.648Z,100.00
2023-03-28T06:27:35.926Z,100.00
2023-03-28T06:30:05.021Z,100.00
2023-03-28T06:32:32.814Z,100.00
2023-03-28T06:35:01.843Z,100.00
2023-03-28T06:37:29.590Z,100.00
2023-03-28T06:39:57.281Z,100.00
2023-03-28T06:42:25.279Z,100.00
2023-03-28T06:44:53.083Z,100.00
2023-03-28T06:47:20.825Z,100.00
2023-03-28T06:49:48.581Z,100.00
2023-03-28T06:52:17.741Z,100.00
2023-03-28T06:54:47.941Z,100.00
2023-03-28T06:57:17.039Z,100.00
2023-03-28T06:59:44.793Z,100.00
2023-03-28T07:02:12.769Z,100.00
2023-03-28T07:04:40.709Z,100.00
2023-03-28T07:07:09.399Z,88.96
2023-03-28T07:09:38.709Z,69.38
2023-03-28T07:12:06.958Z,66.58
2023-03-28T07:14:35.264Z,62.92
2023-03-28T07:17:03.062Z,63.61
2023-03-28T07:19:31.093Z,60.52
2023-03-28T07:21:59.206Z,62.18
2023-03-28T07:24:27.213Z,59.75
2023-03-28T07:27:11.794Z,56.14
2023-03-28T07:29:43.517Z,51.41
2023-03-28T07:32:11.394Z,49.25
2023-03-28T07:34:39.180Z,48.00
2023-03-28T07:37:06.960Z,49.09
2023-03-28T07:39:39.757Z,51.75
2023-03-28T07:42:11.748Z,53.46
2023-03-28T07:44:42.246Z,52.83
2023-03-28T07:47:11.057Z,52.58
2023-03-28T07:49:39.601Z,52.24
2023-03-28T07:52:07.468Z,51.18
2023-03-28T07:54:37.310Z,46.63
2023-03-28T07:57:05.353Z,44.25
2023-03-28T07:59:34.841Z,48.57
2023-03-28T08:02:02.930Z,52.50
2023-03-28T08:04:32.103Z,55.37
2023-03-28T08:07:00.517Z,56.35
2023-03-28T08:09:28.338Z,58.21
2023-03-28T08:11:56.305Z,58.97
2023-03-28T08:14:24.277Z,58.63
2023-03-28T08:16:54.357Z,57.64
2023-03-28T08:19:22.012Z,58.38
2023-03-28T08:21:49.673Z,57.60
2023-03-28T08:24:25.436Z,56.99
2023-03-28T08:27:01.974Z,56.32
2023-03-28T08:29:29.779Z,56.20
2023-03-28T08:31:58.870Z,55.60
2023-03-28T08:34:27.079Z,56.47
2023-03-28T08:36:54.790Z,57.84
2023-03-28T08:39:23.366Z,57.90
2023-03-28T08:42:25.283Z,55.76
2023-03-28T08:45:08.710Z,54.86
2023-03-28T08:47:48.082Z,56.01
2023-03-28T08:50:20.041Z,57.20
2023-03-28T08:52:48.440Z,59.21
2023-03-28T08:55:28.849Z,58.19
2023-03-28T08:57:57.586Z,59.20
2023-03-28T09:00:29.799Z,59.18
2023-03-28T09:02:59.644Z,59.00
2023-03-28T09:05:43.231Z,58.41
2023-03-28T09:08:29.047Z,59.19
2023-03-28T09:11:04.180Z,57.13
2023-03-28T09:13:46.306Z,53.59
2023-03-28T09:16:42.137Z,52.05
2023-03-28T09:19:36.943Z,51.69
2023-03-28T09:22:19.907Z,52.15
2023-03-28T09:25:02.241Z,51.61
2023-03-28T09:27:34.692Z,49.69
2023-03-28T09:30:17.365Z,47.19
2023-03-28T09:32:45.661Z,48.33
2023-03-28T09:35:18.633Z,49.88
2023-03-28T09:37:49.865Z,46.75
2023-03-28T09:40:22.401Z,46.61
2023-03-28T09:43:01.160Z,46.92
2023-03-28T09:45:40.635Z,49.01
2023-03-28T09:48:14.672Z,49.36
2023-03-28T09:50:44.705Z,49.85
2023-03-28T09:53:22.145Z,45.78
2023-03-28T09:56:03.314Z,45.04
2023-03-28T09:58:49.207Z,45.67
2023-03-28T10:01:33.037Z,44.79
2023-03-28T10:04:01.184Z,43.76
2023-03-28T10:06:32.137Z,44.59
2023-03-28T10:09:11.689Z,44.17
2023-03-28T10:11:48.708Z,45.20
2023-03-28T10:14:34.173Z,45.90
2023-03-28T10:17:04.556Z,46.75
2023-03-28T10:19:35.845Z,47.13
2023-03-28T10:22:08.388Z,45.03
2023-03-28T10:24:37.744Z,41.54
2023-03-28T10:27:17.221Z,41.70
2023-03-28T10:29:46.391Z,41.13
2023-03-28T10:32:15.043Z,42.27
2023-03-28T10:34:42.724Z,43.26
2023-03-28T10:37:26.327Z,44.49
2023-03-28T10:40:01.902Z,44.27
2023-03-28T10:42:41.523Z,42.90
2023-03-28T10:45:20.615Z,43.38
2023-03-28T10:47:50.371Z,44.22
2023-03-28T10:50:23.160Z,44.35
2023-03-28T10:52:58.577Z,43.81
2023-03-28T10:55:32.554Z,43.57
2023-03-28T10:58:07.577Z,43.75
2023-03-28T11:00:42.606Z,44.23
2023-03-28T11:03:25.265Z,44.20
2023-03-28T11:06:08.819Z,44.53
2023-03-28T11:08:49.892Z,43.76
2023-03-28T11:11:36.745Z,42.26
2023-03-28T11:14:13.566Z,40.58
2023-03-28T11:16:50.430Z,40.80
2023-03-28T11:19:33.177Z,40.65
2023-03-28T11:22:13.905Z,41.77
2023-03-28T11:24:52.131Z,43.28
2023-03-28T11:27:25.558Z,44.37
2023-03-28T11:29:55.747Z,44.39
2023-03-28T11:32:27.529Z,45.18
2023-03-28T11:35:03.984Z,43.56
2023-03-28T11:37:37.595Z,41.68
2023-03-28T11:40:16.293Z,40.24
2023-03-28T11:42:48.526Z,39.60
2023-03-28T11:45:37.938Z,39.46
2023-03-28T11:48:22.611Z,37.42
2023-03-28T11:51:00.053Z,36.26
2023-03-28T11:53:32.061Z,35.77
2023-03-28T11:56:06.810Z,37.21
2023-03-28T11:58:38.528Z,36.03
2023-03-28T12:01:11.755Z,35.75
2023-03-28T12:03:52.014Z,35.47
2023-03-28T12:06:27.040Z,33.61
2023-03-28T12:09:01.387Z,30.85
2023-03-28T12:11:36.742Z,30.79
2023-03-28T12:14:15.177Z,30.61
2023-03-28T12:16:47.850Z,31.73
2023-03-28T12:19:21.767Z,33.84
2023-03-28T12:21:52.567Z,35.19
2023-03-28T12:24:26.713Z,36.28
2023-03-28T12:27:07.724Z,35.13
2023-03-28T12:29:43.192Z,36.38
2023-03-28T12:32:26.485Z,37.76
2023-03-28T12:35:05.060Z,39.36
2023-03-28T12:37:39.765Z,40.25
2023-03-28T12:40:23.632Z,38.25
2023-03-28T12:42:55.764Z,37.93
2023-03-28T12:45:29.491Z,38.42
2023-03-28T12:48:02.950Z,39.02
2023-03-28T12:50:33.861Z,38.87
2023-03-28T12:53:01.925Z,38.50
2023-03-28T12:55:49.742Z,39.29
2023-03-28T12:58:26.032Z,41.07
2023-03-28T13:01:14.747Z,41.29
2023-03-28T13:03:53.280Z,42.30
2023-03-28T13:06:29.272Z,41.65
2023-03-28T13:09:17.829Z,40.58
2023-03-28T13:11:53.843Z,39.88
2023-03-28T13:14:38.324Z,38.83
2023-03-28T13:17:21.650Z,38.99
2023-03-28T13:19:53.162Z,38.29
2023-03-28T13:22:30.325Z,38.48
2023-03-28T13:25:27.283Z,37.93
2023-03-28T13:27:57.135Z,38.20
2023-03-28T13:30:28.791Z,38.54
2023-03-28T13:33:02.265Z,38.22
2023-03-28T13:35:47.229Z,39.23
2023-03-28T13:38:26.447Z,38.74
2023-03-28T13:40:55.969Z,38.58
2023-03-28T13:43:26.446Z,38.38
2023-03-28T13:45:58.946Z,38.32
2023-03-28T13:48:34.024Z,37.74
2023-03-28T13:51:06.635Z,38.85
2023-03-28T13:53:46.499Z,39.19
2023-03-28T13:56:24.211Z,38.26
2023-03-28T13:58:53.202Z,38.93
2023-03-28T14:01:25.807Z,39.95
2023-03-28T14:03:55.814Z,39.98
2023-03-28T14:06:25.508Z,38.22
2023-03-28T14:08:55.823Z,37.88
2023-03-28T14:11:30.333Z,38.26
2023-03-28T14:14:06.658Z,38.30
2023-03-28T14:16:38.505Z,38.22
2023-03-28T14:19:07.494Z,38.68
2023-03-28T14:21:35.927Z,39.17
2023-03-28T14:24:06.870Z,38.93
2023-03-28T14:26:36.929Z,39.61
2023-03-28T14:29:08.073Z,39.95
2023-03-28T14:31:40.294Z,39.99
2023-03-28T14:34:17.858Z,40.11
2023-03-28T14:36:58.823Z,40.39
2023-03-28T14:39:28.262Z,39.97
2023-03-28T14:41:58.390Z,39.91
2023-03-28T14:44:26.533Z,40.79
2023-03-28T14:46:58.043Z,40.72
2023-03-28T14:49:27.943Z,40.77
2023-03-28T14:51:58.163Z,41.59
2023-03-28T14:54:32.640Z,40.75
2023-03-28T14:57:01.725Z,41.22
2023-03-28T14:59:40.714Z,41.36
2023-03-28T15:02:21.522Z,41.34
2023-03-28T15:04:50.309Z,41.86
2023-03-28T15:07:24.014Z,41.54
2023-03-28T15:10:07.358Z,41.72
2023-03-28T15:12:42.120Z,42.41
2023-03-28T15:15:17.443Z,41.77
2023-03-28T15:17:47.333Z,43.07
2023-03-28T15:20:18.968Z,42.63
2023-03-28T15:22:50.500Z,42.58
2023-03-28T15:25:18.346Z,42.35
2023-03-28T15:27:51.987Z,42.46
2023-03-28T15:30:21.498Z,42.23
2023-03-28T15:32:51.727Z,42.10
2023-03-28T15:35:29.652Z,42.35
2023-03-28T15:38:08.549Z,42.82
2023-03-28T15:40:42.592Z,43.72
2023-03-28T15:43:30.793Z,43.47
2023-03-28T15:46:00.476Z,42.45
2023-03-28T15:48:34.723Z,43.58
2023-03-28T15:51:05.834Z,43.46
2023-03-28T15:53:34.785Z,43.14
2023-03-28T15:56:10.429Z,43.04
2023-03-28T15:58:43.603Z,43.11
2023-03-28T16:01:36.450Z,43.68
2023-03-28T16:04:37.718Z,42.91
2023-03-28T16:07:12.832Z,43.02
2023-03-28T16:09:43.091Z,43.19
2023-03-28T16:12:14.593Z,42.83
2023-03-28T16:14:47.627Z,43.20
2023-03-28T16:17:18.443Z,43.35
2023-03-28T16:19:48.966Z,43.43
2023-03-28T16:22:16.681Z,43.36
2023-03-28T16:24:44.344Z,43.35
2023-03-28T16:27:12.013Z,43.51
2023-03-28T16:29:39.757Z,43.34
2023-03-28T16:32:11.885Z,44.02
2023-03-28T16:34:39.724Z,43.00
2023-03-28T16:37:12.319Z,43.11
2023-03-28T16:39:40.279Z,42.69
2023-03-28T16:42:08.146Z,43.87
2023-03-28T16:44:35.924Z,43.89
2023-03-28T16:47:04.318Z,43.12
2023-03-28T16:49:32.164Z,42.99
2023-03-28T16:51:59.837Z,42.64
2023-03-28T16:54:28.995Z,43.40
2023-03-28T16:56:57.130Z,42.60
2023-03-28T16:59:24.958Z,42.21
2023-03-28T17:01:53.790Z,43.38
2023-03-28T17:04:21.602Z,43.58
2023-03-28T17:06:49.513Z,43.76
2023-03-28T17:09:17.215Z,42.83
2023-03-28T17:11:46.457Z,43.88
2023-03-28T17:14:14.221Z,43.27
2023-03-28T17:16:42.028Z,43.31
2023-03-28T17:19:09.669Z,43.65
2023-03-28T17:21:37.538Z,44.12
2023-03-28T17:24:09.140Z,43.94
2023-03-28T17:26:36.858Z,43.70
2023-03-28T17:29:07.685Z,44.16
2023-03-28T17:31:35.600Z,43.95
2023-03-28T17:34:04.266Z,44.30
2023-03-28T17:36:32.722Z,44.20
2023-03-28T17:39:01.845Z,44.25
2023-03-28T17:41:29.574Z,44.91
2023-03-28T17:43:58.514Z,45.05
2023-03-28T17:46:28.016Z,43.77
2023-03-28T17:48:55.722Z,43.57
2023-03-28T17:51:23.903Z,43.76
2023-03-28T17:53:51.755Z,43.99
2023-03-28T17:56:19.623Z,43.63
2023-03-28T17:58:47.678Z,44.06
2023-03-28T18:01:18.350Z,44.76
2023-03-28T18:03:48.061Z,45.22
2023-03-28T18:06:16.525Z,44.94
2023-03-28T18:08:45.024Z,45.26
2023-03-28T18:11:15.410Z,45.34
2023-03-28T18:13:43.574Z,45.32
2023-03-28T18:16:14.150Z,45.03
2023-03-28T18:18:42.400Z,45.08
2023-03-28T18:21:12.731Z,45.48
2023-03-28T18:23:41.444Z,45.67
2023-03-28T18:26:28.863Z,45.91
2023-03-28T18:28:56.734Z,45.80
2023-03-28T18:31:28.295Z,45.94
2023-03-28T18:33:57.577Z,46.07
2023-03-28T18:36:27.313Z,46.62
2023-03-28T18:38:55.908Z,46.36
2023-03-28T18:41:23.934Z,46.41
2023-03-28T18:43:51.799Z,46.45
2023-03-28T18:46:19.651Z,46.65
2023-03-28T18:48:47.507Z,47.08
2023-03-28T18:51:15.755Z,46.66
2023-03-28T18:53:45.001Z,46.59
2023-03-28T18:56:17.136Z,46.76
2023-03-28T18:58:46.055Z,47.41
2023-03-28T19:01:14.136Z,47.58
2023-03-28T19:03:43.409Z,47.75
2023-03-28T19:06:12.924Z,47.84
2023-03-28T19:08:41.352Z,47.87
2023-03-28T19:11:15.196Z,48.75
2023-03-28T19:13:43.872Z,48.85
2023-03-28T19:16:15.969Z,49.02
2023-03-28T19:18:45.627Z,49.33
2023-03-28T19:21:14.581Z,49.71
2023-03-28T19:23:42.802Z,49.56
2023-03-28T19:26:14.032Z,50.12
2023-03-28T19:28:42.341Z,50.66
2023-03-28T19:31:12.190Z,51.02
2023-03-28T19:33:41.729Z,51.37
2023-03-28T19:36:10.500Z,51.74
2023-03-28T19:38:39.463Z,51.90
2023-03-28T19:41:11.166Z,52.16
2023-03-28T19:43:41.313Z,52.35
2023-03-28T19:46:16.864Z,52.29
2023-03-28T19:48:44.726Z,52.64
2023-03-28T19:51:12.598Z,52.53
2023-03-28T19:53:41.277Z,52.99
2023-03-28T19:56:10.460Z,53.34
2023-03-28T19:58:38.394Z,53.07
2023-03-28T20:01:07.876Z,53.78
2023-03-28T20:03:35.607Z,54.38
2023-03-28T20:06:05.351Z,55.03
2023-03-28T20:08:35.346Z,55.05
2023-03-28T20:11:03.616Z,54.77
2023-03-28T20:13:31.910Z,55.00
2023-03-28T20:16:03.451Z,55.05
2023-03-28T20:18:33.302Z,54.73
2023-03-28T20:21:03.110Z,55.76
2023-03-28T20:23:34.715Z,55.40
2023-03-28T20:26:14.226Z,55.42
2023-03-28T20:28:41.928Z,55.03
2023-03-28T20:31:13.105Z,55.30
2023-03-28T20:33:42.388Z,55.30
2023-03-28T20:36:10.220Z,54.65
2023-03-28T20:38:39.300Z,54.67
2023-03-28T20:41:11.097Z,54.07
2023-03-28T20:43:42.729Z,54.59
2023-03-28T20:46:12.690Z,54.82
2023-03-28T20:48:42.101Z,54.64
2023-03-28T20:51:15.805Z,55.04
2023-03-28T20:53:44.881Z,54.53
2023-03-28T20:56:13.758Z,55.12
2023-03-28T20:58:42.476Z,55.09
2023-03-28T21:01:12.674Z,55.18
2023-03-28T21:03:48.214Z,54.87
2023-03-28T21:06:17.067Z,55.56
2023-03-28T21:08:46.978Z,56.18
2023-03-28T21:11:15.418Z,55.89
2023-03-28T21:13:43.494Z,56.18
2023-03-28T21:16:14.228Z,56.04
2023-03-28T21:18:43.930Z,56.44
2023-03-28T21:21:13.384Z,56.77
2023-03-28T21:23:42.203Z,56.85
2023-03-28T21:26:12.354Z,57.05
2023-03-28T21:28:40.840Z,57.03
2023-03-28T21:31:11.214Z,56.87
2023-03-28T21:33:40.341Z,56.86
2023-03-28T21:36:12.078Z,57.03
2023-03-28T21:38:40.793Z,56.88
2023-03-28T21:41:08.710Z,57.05
2023-03-28T21:43:36.947Z,57.14
2023-03-28T21:46:05.043Z,57.23
2023-03-28T21:48:33.153Z,57.33
2023-03-28T21:51:01.389Z,57.33
2023-03-28T21:53:32.303Z,57.16
2023-03-28T21:56:00.175Z,57.30
2023-03-28T21:58:30.784Z,57.52
2023-03-28T22:00:58.593Z,57.46
2023-03-28T22:03:27.498Z,57.88
2023-03-28T22:05:55.991Z,58.05
2023-03-28T22:08:24.175Z,57.89
2023-03-28T22:10:55.485Z,57.64
2023-03-28T22:13:23.887Z,57.60
2023-03-28T22:15:53.057Z,57.92
2023-03-28T22:18:25.525Z,58.32
2023-03-28T22:20:54.235Z,58.02
2023-03-28T22:23:22.688Z,58.29
2023-03-28T22:25:50.777Z,58.31
2023-03-28T22:28:21.085Z,58.57
2023-03-28T22:30:48.828Z,58.63
2023-03-28T22:33:16.658Z,58.60
2023-03-28T22:35:44.396Z,59.02
2023-03-28T22:38:12.211Z,58.98
2023-03-28T22:40:39.999Z,59.22
2023-03-28T22:43:07.722Z,59.49
2023-03-28T22:45:37.163Z,59.35
2023-03-28T22:48:14.502Z,60.32
2023-03-28T22:50:44.069Z,59.98
2023-03-28T22:53:14.182Z,59.68
2023-03-28T22:55:42.334Z,59.76
2023-03-28T22:58:10.016Z,60.00
2023-03-28T23:00:39.095Z,59.96
2023-03-28T23:03:08.002Z,60.09
2023-03-28T23:05:36.222Z,59.90
2023-03-28T23:08:04.733Z,60.05
2023-03-28T23:10:32.900Z,60.08
2023-03-28T23:13:01.164Z,60.19
2023-03-28T23:15:29.258Z,60.55
2023-03-28T23:17:58.604Z,60.23
2023-03-28T23:20:26.618Z,59.99
2023-03-28T23:22:54.903Z,60.36
2023-03-28T23:25:23.077Z,60.47
2023-03-28T23:27:50.936Z,59.60
2023-03-28T23:30:19.137Z,59.94
2023-03-28T23:32:46.833Z,60.63
2023-03-28T23:35:16.028Z,60.42
2023-03-28T23:37:44.801Z,60.09
2023-03-28T23:40:15.404Z,61.27
2023-03-28T23:42:44.697Z,61.06
2023-03-28T23:45:13.860Z,60.60
2023-03-28T23:47:41.732Z,60.88
2023-03-28T23:50:11.015Z,61.66
2023-03-28T23:52:40.288Z,60.48
2023-03-28T23:58:08.073Z,61.53
